Time;durP1;ratioP1;P1;durP2;ratioP2;P2;SDS_P1;SDS_P2;PMS_P1;PMS_P2;Temp;Humidity;BMP_temperature;BMP_pressure;BME280_temperature;BME280_humidity;BME280_pressure;Samples;Min_cycle;Max_cycle;Signal;HPM_P1;HPM_P2
2022/01/16 00:00:20;;;;;;;1.02;1.02;;;2.30;99.90;;;;;;5067946;28;20029;-84
2022/01/16 00:05:28;;;;;;;1.35;1.25;;;2.30;99.90;;;;;;5076932;28;20135;-84
2022/01/16 00:07:54;;;;;;;1.98;1.70;;;2.30;99.90;;;;;;5060070;28;20037;-85
2022/01/16 00:10:20;;;;;;;2.35;2.03;;;2.20;99.90;;;;;;5074299;28;20044;-83
2022/01/16 00:12:50;;;;;;;1.50;1.35;;;2.20;99.90;;;;;;5087167;28;20048;-85
2022/01/16 00:15:21;;;;;;;2.53;2.33;;;2.20;99.90;;;;;;5053473;28;20047;-85
2022/01/16 00:17:59;;;;;;;2.63;2.40;;;2.10;99.90;;;;;;5054396;28;20056;-84
2022/01/16 00:20:26;;;;;;;1.25;1.23;;;2.20;99.90;;;;;;5077911;28;20049;-85
2022/01/16 00:22:51;;;;;;;1.85;1.75;;;2.10;99.90;;;;;;5073087;28;20044;-84
2022/01/16 00:25:19;;;;;;;2.60;1.90;;;2.10;99.90;;;;;;5077883;28;20100;-84
2022/01/16 00:27:44;;;;;;;7.30;2.95;;;2.10;99.90;;;;;;5056740;28;20041;-84
2022/01/16 00:30:11;;;;;;;1.25;1.23;;;2.10;99.90;;;;;;5055015;28;20468;-84
2022/01/16 00:32:37;;;;;;;1.17;1.17;;;2.10;99.90;;;;;;5060234;28;20060;-84
2022/01/16 00:35:03;;;;;;;5.47;2.38;;;2.10;99.90;;;;;;5056735;28;20040;-84
2022/01/16 00:37:29;;;;;;;2.63;1.75;;;2.00;99.90;;;;;;5079878;28;20033;-85
2022/01/16 00:39:55;;;;;;;1.80;1.70;;;2.20;99.90;;;;;;5062264;28;20041;-85
2022/01/16 00:42:20;;;;;;;3.10;2.50;;;1.90;99.90;;;;;;5055515;28;20040;-85
2022/01/16 00:44:46;;;;;;;3.15;2.85;;;1.90;99.90;;;;;;5065392;28;20045;-85
2022/01/16 00:47:11;;;;;;;1.98;1.88;;;1.90;99.90;;;;;;5078312;28;20037;-85
2022/01/16 00:49:39;;;;;;;5.00;2.75;;;1.90;99.90;;;;;;5073151;28;20048;-85
2022/01/16 00:52:06;;;;;;;3.25;2.72;;;1.90;99.90;;;;;;5075415;28;20053;-85
2022/01/16 00:54:31;;;;;;;2.67;2.28;;;2.00;99.90;;;;;;5075740;28;20097;-84
2022/01/16 00:56:57;;;;;;;3.33;1.77;;;1.90;99.90;;;;;;5058407;28;20029;-85
2022/01/16 00:59:23;;;;;;;1.50;1.40;;;1.80;99.90;;;;;;5080065;28;20033;-85
2022/01/16 01:01:48;;;;;;;2.22;2.03;;;1.80;99.90;;;;;;5058532;28;20123;-85
2022/01/16 01:04:14;;;;;;;4.53;2.75;;;1.80;99.90;;;;;;5077608;28;20048;-84
2022/01/16 01:06:40;;;;;;;4.32;3.40;;;1.80;99.90;;;;;;5074225;28;20037;-85
2022/01/16 01:09:05;;;;;;;2.65;1.65;;;1.90;99.90;;;;;;5057472;28;20063;-85
2022/01/16 01:11:31;;;;;;;3.85;2.97;;;1.90;99.90;;;;;;5051412;28;20059;-85
2022/01/16 01:16:37;;;;;;;4.47;3.10;;;1.70;99.90;;;;;;5074292;28;20146;-85
2022/01/16 01:19:03;;;;;;;4.70;2.20;;;1.70;99.90;;;;;;5079175;28;20163;-84
2022/01/16 01:21:29;;;;;;;5.40;2.15;;;1.70;99.90;;;;;;5079592;28;20055;-84
2022/01/16 01:23:59;;;;;;;3.35;2.67;;;1.70;99.90;;;;;;5074039;28;20047;-85
2022/01/16 01:26:30;;;;;;;1.10;1.10;;;1.60;99.90;;;;;;5063751;28;20055;-85
2022/01/16 01:28:55;;;;;;;2.53;2.08;;;1.60;99.90;;;;;;5060768;28;20401;-85
2022/01/16 01:31:21;;;;;;;3.58;3.17;;;1.60;99.90;;;;;;5079168;28;20033;-85
2022/01/16 01:33:46;;;;;;;5.32;1.40;;;1.70;99.90;;;;;;5082035;28;20436;-84
2022/01/16 01:36:12;;;;;;;2.55;2.35;;;1.70;99.90;;;;;;5077059;28;20084;-84
2022/01/16 01:38:38;;;;;;;2.95;2.45;;;1.70;99.90;;;;;;5077180;28;20051;-85
2022/01/16 01:41:03;;;;;;;2.80;2.55;;;1.80;99.90;;;;;;5059812;28;20045;-85
2022/01/16 01:51:44;;;;;;;1.87;1.70;;;1.70;99.90;;;;;;5070197;28;20045;-85
2022/01/16 01:54:11;;;;;;;2.38;2.17;;;1.70;99.90;;;;;;5073661;28;20066;-85
2022/01/16 01:56:39;;;;;;;0.80;0.80;;;1.70;99.90;;;;;;5072830;28;20087;-85
2022/01/16 01:59:05;;;;;;;4.45;2.55;;;1.70;99.90;;;;;;5075289;28;20120;-85
2022/01/16 02:01:31;;;;;;;2.03;1.88;;;1.70;99.90;;;;;;5072095;28;20073;-85
2022/01/16 02:03:58;;;;;;;3.95;3.25;;;1.70;99.90;;;;;;5062181;28;20040;-84
2022/01/16 02:06:31;;;;;;;3.13;2.58;;;1.70;99.90;;;;;;5076561;28;20420;-84
2022/01/16 02:09:03;;;;;;;2.30;1.92;;;1.90;99.90;;;;;;5073529;28;20100;-84
2022/01/16 02:11:31;;;;;;;1.55;1.45;;;1.90;99.90;;;;;;5061590;28;20123;-84
2022/01/16 02:35:26;;;;;;;2.10;1.90;;;1.70;99.90;;;;;;5076816;28;20077;-85
2022/01/16 02:37:51;;;;;;;3.90;2.80;;;1.80;99.90;;;;;;5078442;28;20090;-84
2022/01/16 02:40:22;;;;;;;2.42;2.15;;;1.80;99.90;;;;;;5057292;28;20053;-84
2022/01/16 02:42:50;;;;;;;1.67;1.58;;;1.80;99.90;;;;;;5060262;28;20051;-84
2022/01/16 02:45:27;;;;;;;1.52;1.42;;;1.80;99.90;;;;;;5061371;28;20052;-85
2022/01/16 02:47:55;;;;;;;1.40;1.30;;;1.80;99.90;;;;;;5055463;28;20041;-84
2022/01/16 02:50:21;;;;;;;4.43;1.77;;;1.70;99.90;;;;;;5072523;28;20713;-84
2022/01/16 02:52:47;;;;;;;1.20;1.10;;;1.80;99.90;;;;;;5055141;28;20072;-83
2022/01/16 02:55:14;;;;;;;1.45;1.35;;;1.80;99.90;;;;;;5076125;28;20485;-84
2022/01/16 02:57:39;;;;;;;2.30;1.48;;;1.70;99.90;;;;;;5060822;28;20170;-84
2022/01/16 03:00:06;;;;;;;1.15;1.05;;;1.70;99.90;;;;;;5072287;28;20488;-84
2022/01/16 03:02:32;;;;;;;1.40;1.30;;;1.70;99.90;;;;;;5054415;28;20083;-84
2022/01/16 03:04:57;;;;;;;1.08;1.02;;;1.70;99.90;;;;;;5059541;28;20047;-84
2022/01/16 03:07:23;;;;;;;1.38;1.27;;;1.80;99.90;;;;;;5053449;28;20042;-84
2022/01/16 03:12:41;;;;;;;1.15;1.10;;;1.80;99.90;;;;;;5075064;28;20037;-85
2022/01/16 03:15:07;;;;;;;1.40;1.15;;;1.80;99.90;;;;;;5065289;28;20083;-84
2022/01/16 03:17:39;;;;;;;1.70;1.30;;;1.80;99.90;;;;;;5072240;28;20037;-85
2022/01/16 03:22:50;;;;;;;3.45;1.60;;;1.80;99.90;;;;;;5071807;28;20048;-84
2022/01/16 03:25:16;;;;;;;1.92;1.55;;;1.80;99.90;;;;;;5069553;28;20067;-85
2022/01/16 03:27:42;;;;;;;2.15;1.40;;;1.80;99.90;;;;;;5069782;28;20091;-84
2022/01/16 03:30:10;;;;;;;1.45;1.35;;;1.80;99.90;;;;;;5075726;28;20123;-84
2022/01/16 03:32:36;;;;;;;1.10;1.10;;;1.80;99.90;;;;;;5074016;28;20048;-84
2022/01/16 03:35:02;;;;;;;1.42;1.33;;;1.90;99.90;;;;;;5077442;28;20040;-85
2022/01/16 03:37:27;;;;;;;1.08;1.02;;;1.90;99.90;;;;;;5060771;28;20037;-84
2022/01/16 03:39:53;;;;;;;1.63;1.52;;;1.90;99.90;;;;;;5072191;28;20059;-84
2022/01/16 03:42:25;;;;;;;1.00;1.00;;;1.90;99.90;;;;;;5077583;28;20040;-84
2022/01/16 03:44:51;;;;;;;6.68;2.92;;;1.90;99.90;;;;;;5060450;28;20036;-84
2022/01/16 03:47:16;;;;;;;2.60;2.15;;;1.90;99.90;;;;;;5068950;28;20108;-84
2022/01/16 03:49:42;;;;;;;2.42;2.22;;;1.90;99.90;;;;;;5075625;28;20053;-84
2022/01/16 03:52:07;;;;;;;3.08;2.20;;;2.00;99.90;;;;;;5057736;28;20094;-84
2022/01/16 03:54:33;;;;;;;3.78;1.88;;;1.90;99.90;;;;;;5071099;28;20036;-84
2022/01/16 03:56:59;;;;;;;1.75;1.65;;;1.90;99.90;;;;;;5078618;28;20044;-84
2022/01/16 03:59:25;;;;;;;5.82;2.80;;;1.90;99.90;;;;;;5076063;28;20078;-83
2022/01/16 04:01:51;;;;;;;4.45;2.47;;;2.00;99.90;;;;;;5049922;28;20493;-84
2022/01/16 04:04:16;;;;;;;2.35;1.25;;;1.90;99.90;;;;;;5072696;28;20041;-83
2022/01/16 04:06:42;;;;;;;21.38;3.25;;;1.90;99.90;;;;;;5060966;28;20041;-84
2022/01/16 04:09:08;;;;;;;2.55;2.35;;;1.90;99.90;;;;;;5076298;28;20033;-84
2022/01/16 04:11:34;;;;;;;1.92;1.83;;;2.00;99.90;;;;;;5062002;28;20041;-84
2022/01/16 04:14:07;;;;;;;3.28;3.08;;;2.00;99.90;;;;;;5079688;28;20076;-84
2022/01/16 04:16:33;;;;;;;4.35;2.30;;;2.00;99.90;;;;;;5075851;28;20037;-84
2022/01/16 04:18:59;;;;;;;2.72;2.28;;;2.00;99.90;;;;;;5060190;28;20056;-84
2022/01/16 04:21:27;;;;;;;1.35;1.25;;;2.00;99.90;;;;;;5075428;28;20029;-84
2022/01/16 04:23:53;;;;;;;3.35;2.45;;;2.00;99.90;;;;;;5066709;28;20044;-84
2022/01/16 04:26:20;;;;;;;1.08;1.05;;;2.00;99.90;;;;;;5070910;28;20044;-84
2022/01/16 04:28:46;;;;;;;1.38;1.27;;;2.00;99.90;;;;;;5073498;28;20140;-85
2022/01/16 04:31:16;;;;;;;2.00;1.83;;;2.00;99.90;;;;;;5062961;28;20079;-84
2022/01/16 04:33:43;;;;;;;2.42;1.95;;;2.00;99.90;;;;;;5074001;28;20041;-84
2022/01/16 04:36:09;;;;;;;1.52;1.42;;;2.00;99.90;;;;;;5080010;28;20041;-84
2022/01/16 04:38:36;;;;;;;3.38;2.80;;;2.10;99.90;;;;;;5078008;28;20128;-84
2022/01/16 04:43:47;;;;;;;1.42;1.33;;;2.10;99.90;;;;;;5069486;28;20049;-84
2022/01/16 04:46:17;;;;;;;3.83;2.53;;;2.10;99.90;;;;;;5063241;28;20131;-84
2022/01/16 04:48:43;;;;;;;3.20;1.90;;;2.10;99.90;;;;;;5076383;28;20041;-85
2022/01/16 04:51:09;;;;;;;3.33;1.88;;;2.10;99.90;;;;;;5077097;28;20167;-84
2022/01/16 04:53:35;;;;;;;2.03;1.77;;;2.10;99.90;;;;;;5072598;28;20033;-84
2022/01/16 04:56:01;;;;;;;7.20;2.72;;;2.10;99.90;;;;;;5079503;28;20048;-84
2022/01/16 04:58:26;;;;;;;1.88;1.77;;;2.20;99.90;;;;;;5074789;28;20083;-84
2022/01/16 05:00:54;;;;;;;6.68;3.47;;;2.20;99.90;;;;;;5073079;28;20146;-84
2022/01/16 05:03:20;;;;;;;4.03;2.53;;;2.20;99.90;;;;;;5073708;28;20041;-84
2022/01/16 05:05:46;;;;;;;3.97;2.58;;;2.20;99.90;;;;;;5079797;28;20072;-84
2022/01/16 05:08:11;;;;;;;2.15;1.60;;;2.20;99.90;;;;;;5065661;28;20052;-84
2022/01/16 05:10:37;;;;;;;2.00;1.80;;;2.20;99.90;;;;;;5071227;28;20059;-84
2022/01/16 05:18:31;;;;;;;2.53;2.28;;;2.30;99.90;;;;;;5067410;28;20052;-85
2022/01/16 05:20:56;;;;;;;1.92;1.83;;;2.40;99.90;;;;;;5065452;28;20044;-85
2022/01/16 05:23:22;;;;;;;1.52;1.42;;;2.30;99.90;;;;;;5081811;28;20044;-85
2022/01/16 05:25:47;;;;;;;3.33;2.65;;;2.30;99.90;;;;;;5063428;28;20044;-85
2022/01/16 05:28:13;;;;;;;1.38;1.30;;;2.30;99.90;;;;;;5062029;28;20029;-84
2022/01/16 05:30:38;;;;;;;4.78;2.45;;;2.30;99.90;;;;;;5077899;28;20048;-84
2022/01/16 05:33:04;;;;;;;3.03;2.10;;;2.30;99.90;;;;;;5062534;28;20139;-84
2022/01/16 05:35:29;;;;;;;2.50;1.27;;;2.40;99.90;;;;;;5055964;28;20052;-84
2022/01/16 05:37:55;;;;;;;1.15;1.13;;;2.30;99.90;;;;;;5069158;28;20102;-84
2022/01/16 05:40:21;;;;;;;3.03;1.90;;;2.30;99.90;;;;;;5068610;28;20037;-84
2022/01/16 05:42:46;;;;;;;1.70;1.58;;;2.40;99.90;;;;;;5076720;28;20164;-84
2022/01/16 05:45:12;;;;;;;2.97;2.05;;;2.40;99.90;;;;;;5069533;28;20123;-84
2022/01/16 05:47:37;;;;;;;1.30;1.20;;;2.40;99.90;;;;;;5077077;28;20048;-85
2022/01/16 05:50:04;;;;;;;1.40;1.30;;;2.40;99.90;;;;;;5073697;28;20564;-84
2022/01/16 05:52:30;;;;;;;5.18;2.55;;;2.40;99.90;;;;;;5050569;28;20097;-86
2022/01/16 05:54:55;;;;;;;1.33;1.23;;;2.40;99.90;;;;;;5061142;28;20040;-84
2022/01/16 05:57:21;;;;;;;3.45;3.10;;;2.40;99.90;;;;;;5077715;28;20060;-85
2022/01/16 05:59:46;;;;;;;4.22;2.17;;;2.40;99.90;;;;;;5074799;28;20046;-85
2022/01/16 06:02:13;;;;;;;2.58;1.55;;;2.40;99.90;;;;;;5078615;28;20028;-84
2022/01/16 06:04:38;;;;;;;1.92;1.83;;;2.40;99.90;;;;;;5074171;28;20120;-85
2022/01/16 06:07:05;;;;;;;2.95;2.10;;;2.50;99.90;;;;;;5063561;28;20140;-84
2022/01/16 06:09:31;;;;;;;2.03;1.45;;;2.50;99.90;;;;;;5077349;28;20051;-85
2022/01/16 06:11:57;;;;;;;3.38;1.75;;;2.50;99.90;;;;;;5073893;28;20049;-85
2022/01/16 06:14:23;;;;;;;3.15;2.22;;;2.50;99.90;;;;;;5056649;28;20044;-85
2022/01/16 06:16:51;;;;;;;2.25;2.08;;;2.50;99.90;;;;;;5076367;28;20087;-84
2022/01/16 06:19:16;;;;;;;2.28;2.13;;;2.50;99.90;;;;;;5072281;28;20041;-84
2022/01/16 06:21:42;;;;;;;7.43;2.78;;;2.50;99.90;;;;;;5075367;28;20045;-84
2022/01/16 06:24:08;;;;;;;2.25;2.05;;;2.60;99.90;;;;;;5079256;28;20051;-85
2022/01/16 06:26:33;;;;;;;5.43;1.80;;;2.60;99.90;;;;;;5075982;28;20060;-85
2022/01/16 06:28:59;;;;;;;3.03;2.78;;;2.60;99.90;;;;;;5055939;28;20063;-85
2022/01/16 06:31:25;;;;;;;1.48;1.38;;;2.60;99.90;;;;;;5065993;28;20086;-84
2022/01/16 06:33:50;;;;;;;1.92;1.73;;;2.60;99.90;;;;;;5074979;28;20045;-85
2022/01/16 06:36:16;;;;;;;2.63;2.40;;;2.70;99.90;;;;;;5049303;28;20045;-85
2022/01/16 06:38:42;;;;;;;5.45;3.42;;;2.80;99.90;;;;;;5077958;28;20055;-85
2022/01/16 06:41:09;;;;;;;4.88;4.20;;;2.70;99.90;;;;;;5070742;28;20076;-85
2022/01/16 06:43:34;;;;;;;5.88;2.30;;;2.70;99.90;;;;;;5072049;28;20063;-85
2022/01/16 06:46:00;;;;;;;6.07;2.38;;;2.70;99.90;;;;;;5061604;28;20052;-84
2022/01/16 06:48:25;;;;;;;6.43;5.80;;;2.70;99.90;;;;;;5074888;28;20033;-85
2022/01/16 06:50:51;;;;;;;3.08;2.30;;;2.80;99.90;;;;;;5071681;28;20045;-83
2022/01/16 06:53:16;;;;;;;2.20;1.95;;;2.80;99.90;;;;;;5066923;28;20049;-85
2022/01/16 06:55:42;;;;;;;1.70;1.60;;;2.90;99.90;;;;;;5075786;28;20063;-85
2022/01/16 06:58:07;;;;;;;3.58;2.08;;;2.90;99.90;;;;;;5067935;28;20416;-84
2022/01/16 07:00:33;;;;;;;2.17;1.95;;;2.90;99.90;;;;;;5075937;28;20053;-85
2022/01/16 07:02:59;;;;;;;5.65;3.38;;;2.90;99.90;;;;;;5063390;28;20048;-85
2022/01/16 07:05:24;;;;;;;7.30;2.20;;;2.90;99.90;;;;;;5051341;28;20050;-85
2022/01/16 07:07:50;;;;;;;10.00;2.08;;;2.90;99.90;;;;;;5072744;28;20044;-84
2022/01/16 07:10:15;;;;;;;3.83;2.45;;;2.90;99.90;;;;;;5073251;28;20593;-85
2022/01/16 07:12:41;;;;;;;2.05;1.83;;;2.90;99.90;;;;;;5052722;28;20037;-85
2022/01/16 07:15:07;;;;;;;4.40;3.42;;;3.00;99.90;;;;;;5070477;28;20048;-85
2022/01/16 07:17:32;;;;;;;2.35;2.15;;;3.00;99.90;;;;;;5059955;28;20029;-85
2022/01/16 07:19:58;;;;;;;4.47;2.25;;;3.00;99.90;;;;;;5078918;28;20056;-85
2022/01/16 07:22:23;;;;;;;2.72;1.92;;;3.00;99.90;;;;;;5055356;28;20075;-85
2022/01/16 07:24:50;;;;;;;1.52;1.42;;;3.00;99.90;;;;;;5074472;28;20051;-85
2022/01/16 07:27:16;;;;;;;3.45;2.75;;;3.00;99.90;;;;;;5050047;28;20111;-84
2022/01/16 07:29:42;;;;;;;2.65;2.17;;;3.10;99.90;;;;;;5071140;28;20060;-85
2022/01/16 07:32:08;;;;;;;7.22;3.17;;;3.10;99.90;;;;;;5072051;28;20033;-84
2022/01/16 07:34:33;;;;;;;3.53;2.20;;;3.10;99.90;;;;;;5056275;28;20106;-85
2022/01/16 07:36:59;;;;;;;13.13;4.35;;;3.20;99.90;;;;;;5069494;28;20051;-84
2022/01/16 07:39:24;;;;;;;3.97;3.25;;;3.20;99.90;;;;;;5070207;28;20662;-85
2022/01/16 07:41:50;;;;;;;3.00;2.60;;;3.20;99.90;;;;;;5053379;28;20170;-85
2022/01/16 07:44:15;;;;;;;6.72;3.08;;;3.20;99.90;;;;;;5067347;28;20142;-84
2022/01/16 07:46:41;;;;;;;3.25;2.78;;;3.30;99.90;;;;;;5058535;28;20037;-85
2022/01/16 07:49:07;;;;;;;1.20;1.17;;;3.30;99.90;;;;;;5058015;28;20090;-85
2022/01/16 07:51:32;;;;;;;4.55;2.95;;;3.30;99.90;;;;;;5078152;28;20373;-86
2022/01/16 07:53:58;;;;;;;2.65;2.45;;;3.30;99.90;;;;;;5057364;28;20405;-87
2022/01/16 07:56:24;;;;;;;5.38;2.58;;;3.40;99.90;;;;;;5074493;28;20490;-84
2022/01/16 07:58:50;;;;;;;2.88;2.67;;;3.40;99.90;;;;;;5071881;28;20090;-85
2022/01/16 08:01:15;;;;;;;2.28;2.08;;;3.40;99.90;;;;;;5056626;28;20100;-86
2022/01/16 08:03:41;;;;;;;2.22;2.03;;;3.40;99.90;;;;;;5056216;28;20037;-85
2022/01/16 08:06:07;;;;;;;7.18;2.78;;;3.50;99.90;;;;;;5067561;28;20113;-85
2022/01/16 08:08:33;;;;;;;2.85;2.42;;;3.50;99.90;;;;;;5062138;28;20032;-85
2022/01/16 08:10:58;;;;;;;4.07;3.53;;;3.50;99.90;;;;;;5080154;28;20048;-84
2022/01/16 08:13:24;;;;;;;3.10;2.78;;;3.50;99.90;;;;;;5078048;28;20037;-84
2022/01/16 08:15:49;;;;;;;5.43;4.20;;;3.50;99.90;;;;;;5075280;28;20072;-85
2022/01/16 08:18:15;;;;;;;32.80;2.95;;;3.50;99.90;;;;;;5071926;28;20040;-85
2022/01/16 08:20:40;;;;;;;12.10;5.65;;;3.50;99.90;;;;;;5049014;28;20037;-85
2022/01/16 08:23:06;;;;;;;1.38;1.27;;;3.60;99.90;;;;;;5063315;28;20040;-84
2022/01/16 08:25:32;;;;;;;4.90;3.05;;;3.60;99.90;;;;;;5052055;28;20459;-84
2022/01/16 08:27:57;;;;;;;1.83;1.65;;;3.70;99.90;;;;;;5074983;28;20048;-84
2022/01/16 08:30:23;;;;;;;6.30;2.03;;;3.70;99.90;;;;;;5043955;28;20045;-84
2022/01/16 08:32:49;;;;;;;5.80;4.60;;;3.70;99.90;;;;;;5048997;28;20032;-84
2022/01/16 08:35:14;;;;;;;8.50;3.55;;;3.80;99.90;;;;;;5071203;28;20045;-84
2022/01/16 08:37:40;;;;;;;7.53;3.42;;;3.80;99.90;;;;;;5072823;28;20477;-84
2022/01/16 08:40:07;;;;;;;4.63;2.03;;;3.80;99.90;;;;;;5075416;28;20072;-83
2022/01/16 08:42:35;;;;;;;2.17;2.00;;;3.90;99.90;;;;;;5071364;28;20037;-84
2022/01/16 08:45:00;;;;;;;3.10;2.85;;;3.80;99.90;;;;;;5069309;28;20049;-84
2022/01/16 08:47:28;;;;;;;8.10;3.30;;;3.90;99.90;;;;;;5056932;28;20076;-85
2022/01/16 08:49:53;;;;;;;4.47;2.97;;;3.90;99.90;;;;;;5058174;28;20040;-85
2022/01/16 08:52:21;;;;;;;5.07;3.35;;;3.90;99.90;;;;;;5059192;28;20037;-84
2022/01/16 08:54:47;;;;;;;2.70;1.73;;;3.90;99.90;;;;;;5064793;28;20056;-85
2022/01/16 08:57:13;;;;;;;2.30;2.10;;;3.90;99.90;;;;;;5063290;28;20037;-85
2022/01/16 08:59:38;;;;;;;3.70;2.03;;;4.00;99.90;;;;;;5069522;28;20055;-85
2022/01/16 09:02:04;;;;;;;1.58;1.48;;;4.00;99.90;;;;;;5060930;28;20085;-85
2022/01/16 09:04:29;;;;;;;2.72;2.42;;;4.10;99.90;;;;;;5058724;28;20068;-86
2022/01/16 09:06:55;;;;;;;2.92;2.15;;;4.10;99.90;;;;;;5079055;28;20052;-86
2022/01/16 09:09:21;;;;;;;5.07;2.30;;;4.10;99.90;;;;;;5079004;28;20044;-85
2022/01/16 09:11:47;;;;;;;2.03;1.85;;;4.20;99.90;;;;;;5071155;28;20070;-84
2022/01/16 09:14:14;;;;;;;2.78;2.53;;;4.30;99.90;;;;;;5070485;28;20132;-85
2022/01/16 09:16:39;;;;;;;1.33;1.23;;;4.30;99.90;;;;;;5074803;28;20049;-85
2022/01/16 09:19:05;;;;;;;4.00;2.75;;;4.30;99.90;;;;;;5056933;28;20036;-85
2022/01/16 09:21:30;;;;;;;2.05;1.95;;;4.30;99.90;;;;;;5052905;28;20707;-85
2022/01/16 09:23:56;;;;;;;0.90;0.90;;;4.30;99.90;;;;;;5064736;28;20112;-85
2022/01/16 09:26:25;;;;;;;2.78;2.25;;;4.40;99.90;;;;;;5069832;28;20492;-85
2022/01/16 09:28:50;;;;;;;2.00;1.90;;;4.50;99.90;;;;;;5069363;28;20057;-85
2022/01/16 09:31:16;;;;;;;4.25;2.40;;;4.40;99.90;;;;;;5074584;28;20041;-85
2022/01/16 09:33:41;;;;;;;13.35;2.20;;;4.50;99.90;;;;;;5075879;28;20112;-85
2022/01/16 09:36:09;;;;;;;3.35;1.92;;;4.50;99.90;;;;;;5059986;28;20037;-84
2022/01/16 09:38:44;;;;;;;0.95;0.95;;;4.50;99.90;;;;;;5072232;28;20032;-85
2022/01/16 09:41:10;;;;;;;1.60;1.50;;;4.60;99.90;;;;;;5056253;28;20040;-85
2022/01/16 09:43:36;;;;;;;2.03;1.83;;;4.50;99.90;;;;;;5075246;28;20040;-85
2022/01/16 09:46:02;;;;;;;4.68;2.92;;;4.60;99.90;;;;;;5091269;28;20041;-85
2022/01/16 09:48:28;;;;;;;2.25;2.05;;;4.60;99.90;;;;;;5069965;28;20033;-85
2022/01/16 09:50:54;;;;;;;1.60;1.50;;;4.60;99.90;;;;;;5057607;28;20059;-85
2022/01/16 09:53:21;;;;;;;5.90;2.80;;;4.70;99.90;;;;;;5069684;28;20144;-85
2022/01/16 09:55:47;;;;;;;2.28;1.73;;;4.70;99.90;;;;;;5052305;28;20067;-85
2022/01/16 09:58:13;;;;;;;1.40;1.30;;;4.80;99.90;;;;;;5057399;28;20093;-84
2022/01/16 10:00:39;;;;;;;2.75;2.47;;;4.80;99.90;;;;;;5071199;28;20109;-84
2022/01/16 10:03:05;;;;;;;2.78;2.55;;;4.90;99.90;;;;;;5074664;28;20053;-84
2022/01/16 10:05:36;;;;;;;1.58;1.48;;;5.00;99.90;;;;;;5062094;28;20096;-85
2022/01/16 10:08:04;;;;;;;1.67;1.55;;;5.00;99.90;;;;;;5071255;28;20033;-87
2022/01/16 10:10:37;;;;;;;2.20;2.00;;;5.10;99.90;;;;;;5052944;28;20095;-88
2022/01/16 10:13:24;;;;;;;2.20;2.03;;;5.10;99.90;;;;;;5059626;28;20064;-87
2022/01/16 10:15:57;;;;;;;1.85;1.73;;;5.10;99.90;;;;;;5054947;28;20105;-86
2022/01/16 10:18:38;;;;;;;1.37;1.27;;;5.20;99.90;;;;;;5060250;28;20071;-87
2022/01/16 10:21:04;;;;;;;1.33;1.23;;;5.30;99.90;;;;;;5054640;28;20302;-88
2022/01/16 10:23:38;;;;;;;1.05;0.98;;;5.30;99.90;;;;;;5054727;28;20037;-87
2022/01/16 10:26:04;;;;;;;2.60;1.90;;;5.40;99.90;;;;;;5077375;28;20429;-86
2022/01/16 10:28:30;;;;;;;2.90;2.63;;;5.50;99.90;;;;;;5077084;28;20123;-88
2022/01/16 10:30:58;;;;;;;1.55;1.45;;;5.50;99.90;;;;;;5075972;28;20094;-88
2022/01/16 10:33:31;;;;;;;2.45;1.58;;;5.60;99.90;;;;;;5053846;28;20044;-87
2022/01/16 10:35:57;;;;;;;;;;;5.60;99.90;;;;;;5069793;28;20443;-87
2022/01/16 10:38:28;;;;;;;1.65;1.55;;;5.60;99.90;;;;;;5058437;28;19921;-87
2022/01/16 10:40:57;;;;;;;2.22;1.85;;;5.60;99.90;;;;;;5074031;28;20104;-85
2022/01/16 10:43:42;;;;;;;3.03;2.10;;;5.60;99.90;;;;;;5058246;28;20041;-85
2022/01/16 10:46:09;;;;;;;1.80;1.70;;;5.70;99.90;;;;;;5057053;28;20058;-86
2022/01/16 10:48:35;;;;;;;1.27;1.17;;;5.70;99.90;;;;;;5075239;28;20508;-87
2022/01/16 10:51:01;;;;;;;1.63;1.52;;;5.70;99.90;;;;;;5062079;28;20040;-86
2022/01/16 10:53:29;;;;;;;1.30;1.20;;;5.70;99.90;;;;;;5074811;28;20056;-86
2022/01/16 10:55:57;;;;;;;2.17;1.95;;;5.70;99.90;;;;;;5054412;28;20052;-85
2022/01/16 10:58:28;;;;;;;1.60;1.40;;;5.70;99.90;;;;;;5055844;28;20125;-85
2022/01/16 11:01:05;;;;;;;1.23;1.13;;;5.90;99.90;;;;;;5078246;28;20154;-85
2022/01/16 11:03:45;;;;;;;1.00;1.00;;;5.80;99.90;;;;;;5079885;28;20118;-85
2022/01/16 11:06:12;;;;;;;5.07;2.17;;;5.80;99.90;;;;;;5060474;28;20127;-86
2022/01/16 11:08:39;;;;;;;5.10;2.13;;;5.80;99.90;;;;;;5072822;28;20036;-86
2022/01/16 11:11:07;;;;;;;1.48;1.38;;;5.80;99.90;;;;;;5047953;28;20044;-83
2022/01/16 11:13:34;;;;;;;1.67;1.58;;;5.80;99.90;;;;;;5068055;28;20473;-85
2022/01/16 11:16:03;;;;;;;1.05;1.05;;;5.90;99.90;;;;;;5062124;28;20070;-84
2022/01/16 11:18:30;;;;;;;1.52;1.42;;;5.90;99.90;;;;;;5060113;28;20045;-85
2022/01/16 11:21:03;;;;;;;2.45;2.25;;;5.90;99.90;;;;;;5070111;28;20078;-86
2022/01/16 11:23:47;;;;;;;1.30;1.20;;;6.00;99.90;;;;;;5080031;28;20104;-86
2022/01/16 11:26:14;;;;;;;;;;;6.00;99.90;;;;;;5064191;28;20037;-85
2022/01/16 11:28:40;;;;;;;0.90;0.90;;;6.00;99.90;;;;;;5072594;28;19920;-86
2022/01/16 11:31:09;;;;;;;0.90;0.90;;;5.90;99.90;;;;;;5076084;28;20089;-86
2022/01/16 11:33:37;;;;;;;1.98;1.80;;;5.90;99.90;;;;;;5056970;28;20039;-86
2022/01/16 11:36:21;;;;;;;1.00;1.00;;;6.10;99.90;;;;;;5048341;28;20036;-87
2022/01/16 11:38:52;;;;;;;0.93;0.93;;;5.90;99.90;;;;;;5071492;28;20040;-87
2022/01/16 11:41:34;;;;;;;0.95;0.95;;;5.90;99.90;;;;;;5077975;28;20066;-86
2022/01/16 11:44:05;;;;;;;0.93;0.93;;;6.00;99.90;;;;;;5057243;28;20100;-85
2022/01/16 11:46:34;;;;;;;5.78;4.68;;;6.00;99.90;;;;;;5056921;28;20108;-87
2022/01/16 11:49:01;;;;;;;4.50;1.60;;;6.00;99.90;;;;;;5056310;28;20028;-85
2022/01/16 11:51:32;;;;;;;0.93;0.93;;;6.00;99.90;;;;;;5055022;28;20068;-87
2022/01/16 11:54:01;;;;;;;1.15;0.95;;;6.00;99.90;;;;;;5053299;28;20032;-87
2022/01/16 11:56:41;;;;;;;1.63;1.52;;;6.00;99.90;;;;;;5056583;28;20029;-85
2022/01/16 11:59:25;;;;;;;1.05;0.98;;;6.00;99.90;;;;;;5071021;28;20064;-85
2022/01/16 12:01:53;;;;;;;0.88;0.88;;;6.10;99.90;;;;;;5074000;28;20051;-87
2022/01/16 12:04:28;;;;;;;7.65;3.20;;;6.00;99.90;;;;;;5062593;28;20090;-86
2022/01/16 12:06:54;;;;;;;1.25;1.17;;;6.10;99.90;;;;;;5051102;28;20048;-87
2022/01/16 12:09:45;;;;;;;1.00;1.00;;;6.20;99.90;;;;;;5045653;28;20040;-86
2022/01/16 12:12:14;;;;;;;5.65;4.18;;;6.10;99.90;;;;;;5046790;28;20607;-87
2022/01/16 12:14:53;;;;;;;1.92;1.73;;;6.20;99.90;;;;;;5049493;28;20048;-84
2022/01/16 12:17:44;;;;;;;0.70;0.70;;;6.20;99.90;;;;;;5049968;28;20122;-87
2022/01/16 12:20:13;;;;;;;0.90;0.90;;;6.30;99.90;;;;;;5067217;28;20098;-86
2022/01/16 12:22:59;;;;;;;2.38;2.17;;;6.20;99.90;;;;;;5075271;28;20056;-86
2022/01/16 12:25:39;;;;;;;6.32;1.50;;;6.30;99.90;;;;;;5078878;28;20045;-86
2022/01/16 12:28:05;;;;;;;1.00;1.00;;;6.30;99.90;;;;;;5062033;28;20032;-87
2022/01/16 12:30:48;;;;;;;3.88;2.05;;;6.20;99.90;;;;;;5057476;28;20226;-86
2022/01/16 12:33:16;;;;;;;1.60;1.50;;;6.20;99.90;;;;;;5062220;28;20040;-86
2022/01/16 12:35:42;;;;;;;1.17;1.10;;;6.30;99.90;;;;;;5061908;28;20036;-86
2022/01/16 12:38:11;;;;;;;0.75;0.75;;;6.30;99.90;;;;;;5071050;28;20052;-86
2022/01/16 12:40:38;;;;;;;4.45;1.70;;;6.20;99.90;;;;;;5078032;28;20114;-86
2022/01/16 12:43:08;;;;;;;14.63;1.88;;;6.30;99.90;;;;;;5060561;28;20047;-87
2022/01/16 12:45:38;;;;;;;0.95;0.93;;;6.30;99.90;;;;;;5064145;28;20044;-84
2022/01/16 12:48:05;;;;;;;0.93;0.93;;;6.30;99.90;;;;;;5062445;28;20041;-84
2022/01/16 12:50:31;;;;;;;0.90;0.90;;;6.30;99.90;;;;;;5076271;28;20385;-85
2022/01/16 12:52:57;;;;;;;1.75;1.15;;;6.30;99.90;;;;;;5069611;28;20120;-83
2022/01/16 12:55:30;;;;;;;1.55;1.45;;;6.40;99.90;;;;;;5074152;28;20045;-84
2022/01/16 12:58:16;;;;;;;1.35;1.25;;;6.40;99.90;;;;;;5072044;28;20037;-89
2022/01/16 13:01:01;;;;;;;0.75;0.75;;;6.70;99.90;;;;;;5052587;28;20037;-87
2022/01/16 13:03:28;;;;;;;0.70;0.70;;;6.30;99.90;;;;;;5071397;28;20105;-85
2022/01/16 13:06:21;;;;;;;0.90;0.90;;;6.30;99.90;;;;;;5077841;28;20371;-85
2022/01/16 13:08:49;;;;;;;1.20;1.10;;;6.30;99.90;;;;;;5056356;28;20055;-87
2022/01/16 13:11:15;;;;;;;2.55;1.67;;;6.30;99.90;;;;;;5073549;28;20037;-85
2022/01/16 13:13:41;;;;;;;1.95;1.17;;;6.40;99.90;;;;;;5071186;28;20052;-84
2022/01/16 13:16:38;;;;;;;3.80;1.83;;;6.30;99.90;;;;;;5058399;28;20045;-86
2022/01/16 13:19:09;;;;;;;0.70;0.70;;;6.30;99.90;;;;;;5053961;28;20138;-84
2022/01/16 13:21:58;;;;;;;0.60;0.60;;;6.30;99.90;;;;;;5054290;28;20082;-85
2022/01/16 13:24:39;;;;;;;1.27;1.17;;;6.30;99.90;;;;;;5061162;28;20044;-85
2022/01/16 13:27:07;;;;;;;0.93;0.90;;;6.30;99.90;;;;;;5066282;28;20066;-85
2022/01/16 13:29:36;;;;;;;0.77;0.77;;;6.30;99.90;;;;;;5053552;28;20037;-85
2022/01/16 13:32:04;;;;;;;1.75;1.48;;;6.30;99.90;;;;;;5072541;28;20049;-85
2022/01/16 13:34:44;;;;;;;1.75;1.65;;;6.30;99.90;;;;;;5058316;28;20036;-85
2022/01/16 13:37:37;;;;;;;1.45;1.35;;;6.30;99.90;;;;;;5048085;28;20051;-85
2022/01/16 13:40:13;;;;;;;1.10;1.00;;;6.40;99.90;;;;;;5075438;28;20138;-85
2022/01/16 13:45:36;;;;;;;3.47;3.17;;;6.40;99.90;;;;;;5065067;28;20041;-85
2022/01/16 13:48:07;;;;;;;1.88;1.63;;;6.30;99.90;;;;;;5062856;28;20182;-85
2022/01/16 13:50:41;;;;;;;0.85;0.85;;;6.30;99.90;;;;;;5065666;28;20067;-86
2022/01/16 13:53:14;;;;;;;;;;;6.40;99.90;;;;;;5055344;28;20045;-87